Weather observations for the past three days for
Pagosa Springs, Wolf Creek Pass
Imperial (Metric)
Date Time (mdt) Wind (mph) Vis. (mi.) Weather Sky Cond. Temperature (ºF) Relative Humidity Wind Chill (°F) Heat Index (°F) Pressure Precipitation (in)
Air Dwpt 6 hour altimeter (in) sea level (mb) 1 hr 3 hr 6 hr
Max. Min.
03 22:55 W 9 10.00 Fair CLR 33.8 17.6 51% 27 30.3 0.0
03 22:35 W 10 10.00 Fair CLR 33.8 17.6 51% 26 30.3 0.0
03 22:15 W 10 10.00 Fair CLR 33.8 17.6 51% 26 30.3 0.0
03 21:55 W 10 10.00 Fair CLR 33.8 17.6 51% 26 30.31 0.0
03 21:35 W 8 10.00 Fair CLR 33.8 17.6 51% 28 30.31 0.0
03 21:15 W 7 10.00 Fair CLR 33.8 17.6 51% 28 30.31 0.0
03 20:55 SW 10 10.00 Fair CLR 33.8 17.6 51% 26 30.3 0.0
03 20:35 W 8 10.00 Fair CLR 33.8 19.4 56% 28 30.3 0.0
03 20:15 W 8 10.00 Fair CLR 33.8 19.4 56% 28 30.3 0.0
03 19:55 SW 8 10.00 Fair CLR 35.6 19.4 52% 30 30.29 0.0
03 19:35 W 8 G 16 10.00 Partly Cloudy SCT037 SCT070 35.6 19.4 52% 30 30.29 0.0
03 19:15 SW 12 G 17 10.00 Partly Cloudy SCT022 SCT029 SCT037 35.6 19.4 52% 28 30.3 0.0
03 18:55 SW 9 G 16 10.00 Partly Cloudy SCT060 SCT070 SCT090 37.4 19.4 48% 31 30.3 0.0
03 18:35 W 6 10.00 Mostly Cloudy SCT060 BKN070 35.6 19.4 52% 31 30.31 0.0
03 18:15 W 13 G 17 10.00 Overcast BKN050 OVC070 37.4 19.4 48% 30 30.3 0.0
03 17:55 SW 5 10.00 Mostly Cloudy SCT046 BKN050 BKN065 37.4 19.4 48% 34 30.32 0.0
03 17:35 SW 12 G 21 10.00 Mostly Cloudy SCT055 SCT065 BKN090 37.4 19.4 48% 30 30.31 0.0
03 17:15 SW 9 G 18 10.00 Mostly Cloudy SCT050 BKN065 BKN080 37.4 19.4 48% 31 30.32 0.0
03 16:55 SW 7 10.00 Partly Cloudy SCT048 SCT070 37.4 21.2 52% 33 30.32 0.0
03 16:35 SW 10 G 20 10.00 Partly Cloudy SCT055 SCT080 41 21.2 45% 35 30.32 0.0
03 16:15 SW 12 G 22 10.00 Mostly Cloudy SCT036 SCT055 BKN080 37.4 21.2 52% 30 30.32 0.0
03 15:55 SW 12 G 23 10.00 Overcast SCT075 OVC085 37.4 19.4 48% 30 30.33 0.0
03 15:35 SW 14 G 23 10.00 Mostly Cloudy BKN085 39.2 21.2 48% 32 30.33 0.0
03 15:15 SW 15 G 24 10.00 Partly Cloudy SCT085 39.2 19.4 45% 31 30.34 0.0
03 14:55 W 13 G 22 10.00 Partly Cloudy SCT085 37.4 21.2 52% 30 30.35 0.0
03 14:35 SW 12 G 21 10.00 Partly Cloudy SCT070 37.4 21.2 52% 30 30.37 0.0
03 14:15 W 13 G 21 10.00 Partly Cloudy SCT070 39.2 23 52% 32 30.37 0.0
03 13:55 W 14 G 23 10.00 Partly Cloudy SCT060 37.4 21.2 52% 30 30.37 0.0
03 13:35 W 13 G 23 10.00 Partly Cloudy SCT037 SCT060 37.4 23 56% 30 30.38 0.0
03 13:15 SW 16 G 24 10.00 Fair CLR 37.4 21.2 52% 29 30.39 0.0
03 12:55 SW 15 G 21 10.00 Fair CLR 37.4 21.2 52% 29 30.39 0.0
03 12:35 SW 14 G 21 10.00 Fair CLR 35.6 23 60% 27 30.4 0.0
03 12:15 SW 12 G 20 10.00 Fair CLR 35.6 21.2 56% 28 30.41 0.0
03 11:35 SW 7 G 20 10.00 Fair CLR 35.6 21.2 56% 31 30.42 0.0
03 11:15 SW 10 G 18 10.00 Partly Cloudy SCT037 SCT045 33.8 19.4 56% 26 30.42 0.0
03 10:55 SW 6 10.00 Partly Cloudy SCT037 33.8 19.4 56% 29 30.43 0.0
03 10:35 W 7 10.00 Fair CLR 33.8 19.4 56% 28 30.42 0.0
03 10:15 SW 8 10.00 Fair CLR 33.8 17.6 51% 28 30.42 0.0
03 09:55 SW 7 10.00 Fair CLR 32 19.4 60% 26 30.42 0.0
03 09:35 SW 8 G 17 10.00 Fair CLR 32 19.4 60% 25 30.42 0.0
03 09:15 SW 12 G 20 10.00 Fair CLR 32 19.4 60% 24 30.42 0.0
03 08:55 SW 9 G 16 10.00 Fair CLR 30.2 19.4 64% 23 30.42 0.0
03 08:35 SW 10 10.00 Fair CLR 30.2 19.4 64% 22 30.42 0.0
03 08:15 SW 9 G 16 10.00 Fair CLR 28.4 17.6 64% 20 30.42 0.0
03 07:55 SW 9 10.00 Fair CLR 26.6 17.6 69% 18 30.42 0.0
03 07:35 SW 9 10.00 Fair CLR 26.6 17.6 69% 18 30.42 0.0
03 07:15 SW 9 10.00 Fair CLR 26.6 17.6 69% 18 30.42 0.0
03 06:55 SW 12 10.00 Fair CLR 26.6 17.6 69% 17 30.42 0.0
03 06:35 SW 8 10.00 Fair CLR 26.6 17.6 69% 19 30.42 0.0
03 06:15 SW 8 10.00 Fair CLR 26.6 17.6 69% 19 30.42 0.0
03 05:55 SW 8 10.00 Fair CLR 26.6 17.6 69% 19 30.42 0.0
03 05:35 SW 7 10.00 Fair CLR 26.6 17.6 69% 20 30.42 0.0
03 05:15 SW 7 10.00 Fair CLR 26.6 17.6 69% 20 30.42 0.0
03 04:55 SW 8 10.00 Fair CLR 26.6 17.6 69% 19 30.42 0.0
03 04:35 SW 9 10.00 Fair CLR 26.6 14 59% 18 30.42 0.0
03 04:15 W 9 10.00 Fair CLR 28.4 14 55% 20 30.42 0.0
03 03:55 W 10 10.00 Fair CLR 26.6 14 59% 18 30.42 0.0
03 03:35 SW 12 10.00 Fair CLR 26.6 14 59% 17 30.42 0.0
03 03:15 SW 13 10.00 Fair CLR 28.4 12.2 51% 19 30.42 0.0
03 02:55 SW 14 10.00 Fair CLR 28.4 12.2 51% 18 30.42 0.0
03 02:35 SW 13 G 20 10.00 Fair CLR 28.4 12.2 51% 19 30.42 0.0
03 02:15 SW 13 10.00 Fair CLR 28.4 12.2 51% 19 30.44 0.0
03 01:55 W 10 G 17 10.00 Fair CLR 30.2 12.2 47% 22 30.44 0.0
03 01:35 W 12 10.00 Fair CLR 32 10.4 40% 24 30.44 0.0
03 01:15 W 13 G 17 10.00 Fair CLR 30.2 10.4 43% 21 30.44 0.0
03 00:55 SW 12 10.00 Fair CLR 32 10.4 40% 24 30.44 0.0
03 00:35 W 12 G 18 10.00 Fair CLR 32 10.4 40% 24 30.44 0.0
03 00:15 SW 12 10.00 Fair CLR 32 10.4 40% 24 30.44 0.0
02 23:55 SW 12 10.00 Fair CLR 32 12.2 44% 24 30.44 0.0
02 23:35 SW 12 10.00 Fair CLR 32 12.2 44% 24 30.44 0.0
02 23:15 SW 13 10.00 Fair CLR 32 12.2 44% 23 30.44 0.0
02 22:55 W 13 G 17 10.00 Fair CLR 32 12.2 44% 23 30.44 0.0
02 22:35 SW 10 10.00 Fair CLR 32 12.2 44% 24 30.44 0.0
02 22:15 SW 10 10.00 Fair CLR 32 12.2 44% 24 30.44 0.0
02 21:55 SW 9 10.00 Fair CLR 32 12.2 44% 25 30.44 0.0
02 21:35 SW 10 10.00 Fair CLR 32 12.2 44% 24 30.44 0.0
02 21:15 SW 8 10.00 Fair CLR 32 12.2 44% 25 30.44 0.0
02 20:55 SW 9 10.00 Fair CLR 32 12.2 44% 25 30.43 0.0
02 20:35 SW 8 10.00 Fair CLR 32 12.2 44% 25 30.42 0.0
02 20:15 W 10 10.00 Partly Cloudy SCT065 32 12.2 44% 24 30.42 0.0
02 19:55 W 8 10.00 Partly Cloudy SCT070 33.8 14 44% 28 30.42 0.0
02 19:35 SW 7 G 16 10.00 Partly Cloudy SCT075 SCT080 35.6 14 41% 31 30.42 0.0
02 19:15 W 9 10.00 Partly Cloudy SCT075 35.6 14 41% 29 30.41 0.0
02 18:55 SW 8 10.00 Partly Cloudy SCT075 37.4 14 38% 32 30.41 0.0
02 18:35 SW 9 10.00 Fair CLR 37.4 14 38% 31 30.41 0.0
02 18:15 SW 9 G 16 10.00 Fair CLR 37.4 15.8 41% 31 30.41 0.0
02 17:55 SW 7 G 17 10.00 Partly Cloudy SCT075 37.4 15.8 41% 33 30.42 0.0
02 17:35 SW 10 G 17 10.00 Fair CLR 37.4 15.8 41% 31 30.42 0.0
02 17:15 SW 10 10.00 Fair CLR 39.2 17.6 42% 33 30.41 0.0
02 16:55 W 7 G 17 10.00 Partly Cloudy SCT065 SCT080 37.4 15.8 41% 33 30.42 0.0
02 16:35 SW 5 10.00 Mostly Cloudy SCT055 BKN080 35.6 17.6 48% 32 30.42 0.0
02 16:15 SW 6 10.00 Mostly Cloudy SCT055 BKN070 37.4 17.6 45% 33 30.42 0.0
02 15:55 SW 8 10.00 Mostly Cloudy SCT070 BKN080 41 17.6 39% 36 30.42 0.0
02 15:35 SW 15 G 18 10.00 Mostly Cloudy SCT070 BKN080 39.2 17.6 42% 31 30.43 0.0
02 15:15 W 7 10.00 Mostly Cloudy BKN065 BKN070 39.2 15.8 39% 35 30.44 0.0
02 14:55 W 8 10.00 Mostly Cloudy SCT050 BKN075 37.4 17.6 45% 32 30.44 0.0
02 14:35 SW 10 G 16 10.00 Partly Cloudy SCT065 37.4 19.4 48% 31 30.44 0.0
02 14:15 SW 6 10.00 Mostly Cloudy SCT050 BKN065 35.6 17.6 48% 31 30.44 0.0
02 13:55 W 9 10.00 Mostly Cloudy SCT050 BKN065 33.8 19.4 56% 27 30.44 0.0
02 13:35 W 7 G 20 10.00 Partly Cloudy SCT055 35.6 17.6 48% 31 30.44 0.0
02 13:15 Calm 10.00 Partly Cloudy SCT049 35.6 15.8 44% 30.44 0.0
02 12:55 SW 5 10.00 Partly Cloudy SCT049 SCT055 32 15.8 51% 28 30.46 0.0
02 12:35 SW 8 10.00 Partly Cloudy SCT047 SCT050 33.8 15.8 48% 28 30.46 0.0
02 12:15 W 3 10.00 Partly Cloudy SCT047 SCT050 32 14 47% 30.46 0.0
02 11:55 Calm 10.00 Fair CLR 33.8 15.8 48% 30.46 0.0
02 11:35 S 5 10.00 Partly Cloudy SCT033 SCT040 33.8 17.6 51% 30 30.46 0.0
02 11:15 S 5 10.00 Partly Cloudy SCT033 30.2 17.6 59% 26 30.46 0.0
02 10:55 W 6 10.00 Fair CLR 30.2 17.6 59% 25 30.45 0.0
02 10:35 Calm 10.00 Fair CLR 32 17.6 55% 30.45 0.0
02 10:15 Calm 10.00 Partly Cloudy SCT024 SCT034 30.2 15.8 55% 30.45 0.0
02 09:55 Calm 10.00 Mostly Cloudy BKN022 30.2 19.4 64% 30.44 0.0
02 09:35 Calm 10.00 Partly Cloudy SCT020 28.4 14 55% 30.44 0.0
02 09:15 Calm 10.00 Fair CLR 26.6 14 59% 30.44 0.0
02 08:55 Calm 10.00 Fair CLR 26.6 17.6 69% 30.44 0.0
02 08:35 Calm 10.00 Fair CLR 24.8 17.6 74% 30.43 0.0
02 08:15 Calm 10.00 Fair CLR 24.8 23 93% 30.42 0.0
02 07:55 Calm 10.00 Fair CLR 23 23 100% 30.42 0.0
02 07:35 E 3 10.00 Fair CLR 21.2 21.2 100% 30.42 0.0
02 07:15 Calm 10.00 Fair CLR 0 0 0% 30.42 0.0
02 06:55 SE 3 10.00 Fair CLR 21.2 19.4 93% 30.41 0.0
02 06:35 Calm 10.00 Fair CLR 19.4 19.4 100% 30.39 0.0
02 06:15 E 3 2.50 Partly Cloudy SCT001 21.2 21.2 100% 30.39 0.0
02 05:55 Calm 0.50 Partly Cloudy SCT001 21.2 21.2 100% 30.39 0.0
02 05:35 Calm 0.50 Sky Obscured VV005 21.2 21.2 100% 30.39 0.0
02 05:15 Calm 0.25 Overcast OVC001 21.2 21.2 100% 30.39 0.0
02 04:55 Calm 0.25 Overcast OVC001 21.2 21.2 100% 30.39 0.0
02 04:35 Calm 10.00 Fair CLR 21.2 21.2 100% 30.39 0.0
02 04:15 Calm 10.00 Fair CLR 21.2 21.2 100% 30.39 0.0
02 03:55 Calm 10.00 Partly Cloudy SCT001 21.2 21.2 100% 30.39 0.0
02 03:35 Calm 0.50 Overcast OVC001 21.2 21.2 100% 30.38 0.0
02 03:15 Calm 0.50 Overcast OVC001 21.2 21.2 100% 30.38 0.0
02 02:55 Calm 0.25 Overcast OVC001 21.2 21.2 100% 30.38 0.0
02 02:35 Calm 0.25 Overcast OVC001 23 23 100% 30.38 0.0
02 02:15 Calm 0.25 Overcast OVC001 23 23 100% 30.38 0.0
02 01:55 NE 3 0.25 Overcast OVC001 23 23 100% 30.37 0.0
02 01:35 N 8 0.15 Overcast OVC001 23 23 100% 15 30.37 0.0
02 01:15 N 8 0.15 Overcast OVC001 23 23 100% 15 30.37 0.0
02 00:55 N 10 G 17 0.25 Overcast OVC001 23 23 100% 13 30.37 0.0
02 00:35 N 12 G 18 0.25 Overcast OVC001 23 23 100% 13 30.36 0.0
02 00:15 N 13 0.25 Overcast OVC001 23 23 100% 12 30.35 0.0
01 23:55 N 13 10.00 Fair CLR 23 23 100% 12 30.35 0.0
01 23:35 N 13 G 16 10.00 Partly Cloudy SCT120 23 23 100% 12 30.35 0.0
01 23:15 N 10 10.00 Overcast OVC120 23 23 100% 13 30.35 0.0
01 22:55 N 9 10.00 Partly Cloudy SCT120 23 23 100% 14 30.36 0.0
01 22:35 N 8 10.00 Fair CLR 23 23 100% 15 30.35 0.0
01 22:15 N 8 10.00 Fair CLR 23 21.2 93% 15 30.35 0.0
01 21:55 N 7 10.00 Partly Cloudy SCT120 23 21.2 93% 16 30.35 0.0
01 21:35 N 7 10.00 Mostly Cloudy SCT035 BKN110 23 19.4 86% 16 30.34 0.0
01 21:15 NE 3 10.00 Overcast SCT036 SCT050 OVC110 24.8 19.4 80% 30.34 0.0
01 20:55 Calm 10.00 Mostly Cloudy SCT050 SCT080 BKN110 24.8 19.4 80% 30.32 0.0
01 20:35 Calm 10.00 Mostly Cloudy SCT050 SCT080 BKN100 24.8 19.4 80% 30.32 0.0
01 20:15 Calm 10.00 Overcast SCT040 BKN050 OVC095 24.8 17.6 74% 30.32 0.0
01 19:55 Calm 10.00 Overcast SCT050 OVC085 26.6 17.6 69% 30.31 0.0
01 19:35 Calm 10.00 Overcast SCT065 OVC075 26.6 17.6 69% 30.29 0.0
01 19:15 Calm 10.00 Overcast SCT048 BKN065 OVC075 23 21.2 93% 30.28 0.0
01 18:55 Calm 10.00 Overcast SCT041 OVC050 26.6 15.8 64% 30.28 0.0
01 18:35 SE 7 10.00 Overcast SCT017 SCT025 OVC038 24.8 17.6 74% 18 30.27 0.0
01 18:15 E 5 3.00 Overcast SCT016 BKN021 OVC033 26.6 19.4 74% 22 30.27 0.0
01 17:55 Calm 1.50 Overcast SCT007 BKN010 OVC021 23 23 100% 30.27 0.0
01 17:35 NW 5 2.00 Overcast BKN001 BKN009 OVC015 23 23 100% 18 30.27 0.0
01 17:15 NW 3 0.25 Overcast OVC003 23 23 100% 30.27 0.0
01 16:55 N 7 0.25 Thunderstorm in Vicinity OVC001 24.8 24.8 100% 18 30.26 0.0
01 16:35 NE 5 0.50 Overcast OVC003 24.8 24.8 100% 20 30.26 0.0
01 16:15 NE 7 0.15 Overcast OVC001 26.6 26.6 100% 20 30.25 0.0
01 15:55 NE 6 0.15 Overcast OVC001 24.8 24.8 100% 19 30.25 0.0 0.02
01 15:35 N 6 G 20 0.15 Overcast OVC001 23 23 100% 17 30.26 0.0 0.01
01 15:15 N 7 0.15 Overcast OVC001 24.8 24.8 100% 18 30.26 0.0
01 14:55 N 7 1.50 Thunderstorm in Vicinity BKN005 BKN022 OVC048 26.6 23 86% 20 30.25 0.0
01 14:35 NW 7 10.00 Thunderstorm in Vicinity SCT010 BKN031 OVC080 32 19.4 60% 26 30.25 0.0
01 14:15 Calm 10.00 Overcast SCT018 BKN034 OVC060 32 19.4 60% 30.24 0.0
01 13:55 SW 9 10.00 Mostly Cloudy SCT046 BKN060 BKN075 28.4 21.2 74% 20 30.24 0.0
01 13:35 SW 6 7.00 Overcast SCT025 BKN042 OVC050 28.4 19.4 69% 23 30.24 0.0
01 13:15 S 6 10.00 Overcast SCT014 BKN027 OVC038 28.4 23 80% 23 30.24 0.0
01 12:55 E 3 3.00 Overcast SCT014 SCT021 OVC029 28.4 19.4 69% 30.25 0.0
01 12:35 Calm 10.00 Mostly Cloudy BKN027 BKN039 BKN060 30.2 21.2 69% 30.25 0.0
01 12:15 E 5 10.00 Thunderstorm in Vicinity SCT020 BKN070 30.2 23 75% 26 30.25 0.0
01 11:55 Calm 10.00 Overcast BKN020 BKN037 OVC070 26.6 26.6 100% 30.25 0.0
01 11:35 Calm 10.00 Overcast BKN020 BKN024 OVC035 24.8 24.8 100% 30.25 0.0
01 11:15 Calm 10.00 Overcast OVC020 0 0 0% 30.25 0.0
01 10:55 Calm 10.00 Mostly Cloudy BKN018 BKN028 BKN034 0 0 0% 30.25 0.0
01 10:35 Calm 10.00 Partly Cloudy SCT002 0 0 0% 30.25 0.0
01 10:15 Calm 5.00 Mostly Cloudy BKN002 BKN006 0 0 0% 30.25 0.0
01 09:55 W 5 0.50 Overcast OVC002 0 0 0% 30.24 0.0
01 09:35 NW 3 1.75 Overcast OVC002 0 0 0% 30.23 0.0
01 09:15 E 3 4.00 Overcast BKN002 OVC006 0 0 0% 30.23 0.0
01 08:55 Calm 0.15 Overcast OVC002 0 0 0% 30.22 0.0
01 08:35 Calm 10.00 Overcast OVC004 0 0 0% 30.22 0.0
01 08:15 N 3 2.50 Overcast OVC002 0 0 0% 30.22 0.0
01 07:55 NE 3 1.50 Overcast OVC002 0 0 0% 30.22 0.0
01 07:35 N 5 0.25 Overcast OVC002 21.2 21.2 100% 16 30.22 0.0
01 07:15 N 7 0.15 Overcast OVC002 21.2 21.2 100% 13 30.21 0.0
01 06:55 N 5 0.15 Overcast OVC002 21.2 21.2 100% 16 30.2 0.0
01 06:35 N 3 0.15 Overcast OVC002 0 0 0% 30.2 0.0
01 06:15 N 5 0.15 Overcast OVC002 0 0 0% 30.2 0.0
01 05:55 N 6 0.25 Overcast OVC002 0 0 0% 30.2 0.0
01 05:35 N 5 0.15 Overcast OVC002 0 0 0% 30.2 0.0
01 05:15 Calm 0.25 Overcast OVC002 0 0 0% 30.2 0.0
01 04:55 N 5 0.25 Overcast OVC002 0 0 0% 30.2 0.0
01 04:35 Calm 0.25 Overcast OVC002 0 0 0% 30.2 0.0
01 04:15 N 7 0.25 Overcast OVC002 0 0 0% 30.2 0.0
01 03:55 N 5 0.25 Overcast OVC002 0 0 0% 30.2 0.0
01 03:35 N 6 0.25 Overcast OVC002 0 0 0% 30.2 0.0
01 03:15 N 3 0.15 Overcast OVC002 0 0 0% 30.2 0.0
01 02:55 N 5 0.25 Overcast OVC002 0 0 0% 30.2 0.0
01 02:35 N 7 0.25 Overcast OVC002 0 0 0% 30.2 0.0
01 02:15 N 7 0.25 Overcast OVC002 23 23 100% 16 30.21 0.0
01 01:55 N 9 0.25 Overcast OVC002 21.2 21.2 100% 12 30.21 0.0
01 01:35 N 7 4.00 Mostly Cloudy BKN002 BKN009 BKN065 21.2 21.2 100% 13 30.22 0.0
01 01:15 N 8 0.25 Overcast OVC002 23 23 100% 15 30.22 0.0
01 00:55 NE 9 0.25 Overcast OVC002 23 23 100% 14 30.22 0.0
01 00:35 N 9 0.15 Overcast OVC002 21.2 21.2 100% 12 30.21 0.0
01 00:15 NE 6 0.15 Overcast OVC002 23 23 100% 17 30.22 0.0
30 23:56 N 10 0.25 Overcast OVC002 23 23 100% 13 30.21 0.0
30 23:35 N 10 0.25 Overcast OVC002 23 23 100% 13 30.21 0.0
Date Time (mdt) Wind (mph) Vis. (mi.) Weather Sky Cond. Air Dwpt Max. Min. Relative Humidity Wind Chill (°F) Heat Index (°F) altimeter (in) sea level (mb) 1 hr 3 hr 6 hr
6 hour
Temperature (ºF) Pressure Precipitation (in)